sensor_id;sensor_type;location;lat;lon;timestamp;temperature;humidity
78297;DHT22;67555;47.660;19.622;2024-01-30T00:02:24;-0.40;75.30
78297;DHT22;67555;47.660;19.622;2024-01-30T00:04:51;-0.40;75.30
78297;DHT22;67555;47.660;19.622;2024-01-30T00:07:16;-0.30;75.10
78297;DHT22;67555;47.660;19.622;2024-01-30T00:09:42;-0.20;74.70
78297;DHT22;67555;47.660;19.622;2024-01-30T00:12:08;-0.40;74.70
78297;DHT22;67555;47.660;19.622;2024-01-30T00:14:34;-0.50;75.10
78297;DHT22;67555;47.660;19.622;2024-01-30T00:16:59;-0.60;75.50
78297;DHT22;67555;47.660;19.622;2024-01-30T00:19:25;-0.70;75.60
78297;DHT22;67555;47.660;19.622;2024-01-30T00:22:00;-0.70;75.90
78297;DHT22;67555;47.660;19.622;2024-01-30T00:24:25;-0.80;76.10
78297;DHT22;67555;47.660;19.622;2024-01-30T00:26:51;-0.90;76.10
78297;DHT22;67555;47.660;19.622;2024-01-30T00:29:17;-1.00;76.30
78297;DHT22;67555;47.660;19.622;2024-01-30T00:31:45;-1.10;76.50
78297;DHT22;67555;47.660;19.622;2024-01-30T00:34:11;-1.10;76.70
78297;DHT22;67555;47.660;19.622;2024-01-30T00:36:37;-1.10;76.90
78297;DHT22;67555;47.660;19.622;2024-01-30T00:39:03;-1.10;77.00
78297;DHT22;67555;47.660;19.622;2024-01-30T00:41:32;-1.10;76.90
78297;DHT22;67555;47.660;19.622;2024-01-30T00:43:58;-1.00;76.60
78297;DHT22;67555;47.660;19.622;2024-01-30T00:46:23;-0.90;76.30
78297;DHT22;67555;47.660;19.622;2024-01-30T00:48:49;-0.80;75.90
78297;DHT22;67555;47.660;19.622;2024-01-30T00:51:15;-0.90;75.90
78297;DHT22;67555;47.660;19.622;2024-01-30T00:53:40;-0.90;75.90
78297;DHT22;67555;47.660;19.622;2024-01-30T00:56:07;-0.90;76.00
78297;DHT22;67555;47.660;19.622;2024-01-30T00:58:33;-1.00;76.30
78297;DHT22;67555;47.660;19.622;2024-01-30T01:00:59;-1.10;76.50
78297;DHT22;67555;47.660;19.622;2024-01-30T01:03:25;-1.10;76.70
78297;DHT22;67555;47.660;19.622;2024-01-30T01:05:51;-1.00;76.60
78297;DHT22;67555;47.660;19.622;2024-01-30T01:08:17;-1.00;76.30
78297;DHT22;67555;47.660;19.622;2024-01-30T01:10:43;-0.90;76.20
78297;DHT22;67555;47.660;19.622;2024-01-30T01:13:09;-1.00;76.20
78297;DHT22;67555;47.660;19.622;2024-01-30T01:15:35;-1.00;76.40
78297;DHT22;67555;47.660;19.622;2024-01-30T01:18:00;-1.00;76.40
78297;DHT22;67555;47.660;19.622;2024-01-30T01:20:26;-1.00;76.40
78297;DHT22;67555;47.660;19.622;2024-01-30T01:22:52;-1.00;76.50
78297;DHT22;67555;47.660;19.622;2024-01-30T01:25:19;-1.00;76.50
78297;DHT22;67555;47.660;19.622;2024-01-30T01:27:45;-0.90;76.30
78297;DHT22;67555;47.660;19.622;2024-01-30T01:30:17;-1.00;76.20
78297;DHT22;67555;47.660;19.622;2024-01-30T01:32:48;-1.10;76.40
78297;DHT22;67555;47.660;19.622;2024-01-30T01:35:23;-1.00;76.40
78297;DHT22;67555;47.660;19.622;2024-01-30T01:37:51;-0.90;76.20
78297;DHT22;67555;47.660;19.622;2024-01-30T01:40:25;-0.80;76.00
78297;DHT22;67555;47.660;19.622;2024-01-30T01:42:51;-0.80;76.00
78297;DHT22;67555;47.660;19.622;2024-01-30T01:45:18;-0.80;75.90
78297;DHT22;67555;47.660;19.622;2024-01-30T01:47:44;-0.80;75.80
78297;DHT22;67555;47.660;19.622;2024-01-30T01:50:13;-0.70;75.70
78297;DHT22;67555;47.660;19.622;2024-01-30T01:52:40;-0.90;75.70
78297;DHT22;67555;47.660;19.622;2024-01-30T01:55:07;-1.00;75.90
78297;DHT22;67555;47.660;19.622;2024-01-30T01:57:34;-1.10;76.30
78297;DHT22;67555;47.660;19.622;2024-01-30T02:00:01;-1.10;76.40
78297;DHT22;67555;47.660;19.622;2024-01-30T02:02:30;-1.10;76.40
78297;DHT22;67555;47.660;19.622;2024-01-30T02:05:00;-1.10;76.30
78297;DHT22;67555;47.660;19.622;2024-01-30T02:07:27;-1.00;76.00
78297;DHT22;67555;47.660;19.622;2024-01-30T02:09:53;-1.10;75.80
78297;DHT22;67555;47.660;19.622;2024-01-30T02:12:19;-1.10;75.70
78297;DHT22;67555;47.660;19.622;2024-01-30T02:14:45;-1.20;75.90
78297;DHT22;67555;47.660;19.622;2024-01-30T02:17:12;-1.20;76.10
78297;DHT22;67555;47.660;19.622;2024-01-30T02:19:39;-1.10;76.10
78297;DHT22;67555;47.660;19.622;2024-01-30T02:22:05;-1.10;75.90
78297;DHT22;67555;47.660;19.622;2024-01-30T02:24:31;-1.10;76.00
78297;DHT22;67555;47.660;19.622;2024-01-30T02:26:57;-1.10;75.90
78297;DHT22;67555;47.660;19.622;2024-01-30T02:29:23;-1.10;75.90
78297;DHT22;67555;47.660;19.622;2024-01-30T02:31:50;-1.10;75.90
78297;DHT22;67555;47.660;19.622;2024-01-30T02:34:16;-1.10;75.80
78297;DHT22;67555;47.660;19.622;2024-01-30T02:36:45;-1.30;75.90
78297;DHT22;67555;47.660;19.622;2024-01-30T02:39:11;-1.30;76.10
78297;DHT22;67555;47.660;19.622;2024-01-30T02:41:37;-1.30;76.10
78297;DHT22;67555;47.660;19.622;2024-01-30T02:44:03;-1.20;76.20
78297;DHT22;67555;47.660;19.622;2024-01-30T02:46:29;-1.10;76.00
78297;DHT22;67555;47.660;19.622;2024-01-30T02:48:55;-1.00;75.70
78297;DHT22;67555;47.660;19.622;2024-01-30T02:51:24;-0.90;75.30
78297;DHT22;67555;47.660;19.622;2024-01-30T02:53:50;-0.90;75.00
78297;DHT22;67555;47.660;19.622;2024-01-30T02:56:15;-0.90;74.80
78297;DHT22;67555;47.660;19.622;2024-01-30T02:58:41;-0.90;74.60
78297;DHT22;67555;47.660;19.622;2024-01-30T03:01:07;-0.90;74.60
78297;DHT22;67555;47.660;19.622;2024-01-30T03:03:33;-0.90;74.60
78297;DHT22;67555;47.660;19.622;2024-01-30T03:06:00;-0.90;74.50
78297;DHT22;67555;47.660;19.622;2024-01-30T03:08:26;-0.90;74.10
78297;DHT22;67555;47.660;19.622;2024-01-30T03:10:52;-1.10;74.40
78297;DHT22;67555;47.660;19.622;2024-01-30T03:13:17;-1.20;74.80
78297;DHT22;67555;47.660;19.622;2024-01-30T03:15:43;-1.30;75.20
78297;DHT22;67555;47.660;19.622;2024-01-30T03:18:09;-1.30;75.30
78297;DHT22;67555;47.660;19.622;2024-01-30T03:20:35;-1.30;75.50
78297;DHT22;67555;47.660;19.622;2024-01-30T03:23:01;-1.30;75.40
78297;DHT22;67555;47.660;19.622;2024-01-30T03:25:27;-1.30;75.20
78297;DHT22;67555;47.660;19.622;2024-01-30T03:27:52;-1.30;75.30
78297;DHT22;67555;47.660;19.622;2024-01-30T03:30:18;-1.30;75.10
78297;DHT22;67555;47.660;19.622;2024-01-30T03:32:44;-1.40;75.00
78297;DHT22;67555;47.660;19.622;2024-01-30T03:35:10;-1.50;75.30
78297;DHT22;67555;47.660;19.622;2024-01-30T03:37:36;-1.60;75.50
78297;DHT22;67555;47.660;19.622;2024-01-30T03:40:02;-1.60;75.50
78297;DHT22;67555;47.660;19.622;2024-01-30T03:42:28;-1.60;75.50
78297;DHT22;67555;47.660;19.622;2024-01-30T03:44:55;-1.70;75.80
78297;DHT22;67555;47.660;19.622;2024-01-30T03:47:21;-1.70;75.80
78297;DHT22;67555;47.660;19.622;2024-01-30T03:49:47;-1.80;75.90
78297;DHT22;67555;47.660;19.622;2024-01-30T03:52:14;-1.90;76.00
78297;DHT22;67555;47.660;19.622;2024-01-30T03:54:40;-2.00;76.20
78297;DHT22;67555;47.660;19.622;2024-01-30T03:57:06;-2.10;76.40
78297;DHT22;67555;47.660;19.622;2024-01-30T03:59:32;-2.10;76.40
78297;DHT22;67555;47.660;19.622;2024-01-30T04:01:58;-2.10;76.60
78297;DHT22;67555;47.660;19.622;2024-01-30T04:04:23;-2.20;77.10
78297;DHT22;67555;47.660;19.622;2024-01-30T04:06:58;-2.20;77.30
78297;DHT22;67555;47.660;19.622;2024-01-30T04:09:24;-2.10;77.30
78297;DHT22;67555;47.660;19.622;2024-01-30T04:11:51;-2.10;77.30
78297;DHT22;67555;47.660;19.622;2024-01-30T04:14:17;-2.00;77.20
78297;DHT22;67555;47.660;19.622;2024-01-30T04:16:43;-2.00;77.10
78297;DHT22;67555;47.660;19.622;2024-01-30T04:19:08;-2.00;77.20
78297;DHT22;67555;47.660;19.622;2024-01-30T04:21:34;-1.90;77.10
78297;DHT22;67555;47.660;19.622;2024-01-30T04:24:00;-1.80;76.90
78297;DHT22;67555;47.660;19.622;2024-01-30T04:26:25;-1.80;76.50
78297;DHT22;67555;47.660;19.622;2024-01-30T04:28:51;-1.80;76.50
78297;DHT22;67555;47.660;19.622;2024-01-30T04:31:17;-1.80;76.50
78297;DHT22;67555;47.660;19.622;2024-01-30T04:33:43;-1.70;76.50
78297;DHT22;67555;47.660;19.622;2024-01-30T04:36:09;-1.60;76.10
78297;DHT22;67555;47.660;19.622;2024-01-30T04:38:38;-1.60;75.90
78297;DHT22;67555;47.660;19.622;2024-01-30T04:41:05;-1.70;75.90
78297;DHT22;67555;47.660;19.622;2024-01-30T04:43:32;-1.70;76.00
78297;DHT22;67555;47.660;19.622;2024-01-30T04:45:58;-1.70;76.10
78297;DHT22;67555;47.660;19.622;2024-01-30T04:48:24;-1.70;76.10
78297;DHT22;67555;47.660;19.622;2024-01-30T04:50:50;-1.70;76.00
78297;DHT22;67555;47.660;19.622;2024-01-30T04:53:16;-1.70;75.80
78297;DHT22;67555;47.660;19.622;2024-01-30T04:55:41;-1.80;75.70
78297;DHT22;67555;47.660;19.622;2024-01-30T04:58:07;-1.90;76.00
78297;DHT22;67555;47.660;19.622;2024-01-30T05:00:35;-1.90;76.20
78297;DHT22;67555;47.660;19.622;2024-01-30T05:03:04;-2.10;76.20
78297;DHT22;67555;47.660;19.622;2024-01-30T05:05:30;-2.10;76.40
78297;DHT22;67555;47.660;19.622;2024-01-30T05:07:56;-2.20;76.60
78297;DHT22;67555;47.660;19.622;2024-01-30T05:10:21;-2.30;76.60
78297;DHT22;67555;47.660;19.622;2024-01-30T05:12:47;-2.40;77.00
78297;DHT22;67555;47.660;19.622;2024-01-30T05:15:13;-2.40;77.10
78297;DHT22;67555;47.660;19.622;2024-01-30T05:17:39;-2.60;77.30
78297;DHT22;67555;47.660;19.622;2024-01-30T05:20:05;-2.60;77.70
78297;DHT22;67555;47.660;19.622;2024-01-30T05:22:31;-2.60;77.90
78297;DHT22;67555;47.660;19.622;2024-01-30T05:24:57;-2.60;77.90
78297;DHT22;67555;47.660;19.622;2024-01-30T05:27:23;-2.60;77.90
78297;DHT22;67555;47.660;19.622;2024-01-30T05:29:49;-2.50;77.80
78297;DHT22;67555;47.660;19.622;2024-01-30T05:32:15;-2.40;77.50
78297;DHT22;67555;47.660;19.622;2024-01-30T05:34:41;-2.40;77.30
78297;DHT22;67555;47.660;19.622;2024-01-30T05:37:07;-2.40;77.50
78297;DHT22;67555;47.660;19.622;2024-01-30T05:39:32;-2.40;77.70
78297;DHT22;67555;47.660;19.622;2024-01-30T05:42:00;-2.50;77.80
78297;DHT22;67555;47.660;19.622;2024-01-30T05:44:25;-2.50;78.00
78297;DHT22;67555;47.660;19.622;2024-01-30T05:46:51;-2.50;78.00
78297;DHT22;67555;47.660;19.622;2024-01-30T05:49:17;-2.60;78.10
78297;DHT22;67555;47.660;19.622;2024-01-30T05:51:43;-2.70;78.40
78297;DHT22;67555;47.660;19.622;2024-01-30T05:54:08;-2.70;78.60
78297;DHT22;67555;47.660;19.622;2024-01-30T05:56:34;-2.70;78.60
78297;DHT22;67555;47.660;19.622;2024-01-30T05:59:00;-2.70;78.60
78297;DHT22;67555;47.660;19.622;2024-01-30T06:01:25;-2.70;78.60
78297;DHT22;67555;47.660;19.622;2024-01-30T06:03:55;-2.80;78.80
78297;DHT22;67555;47.660;19.622;2024-01-30T06:06:21;-2.80;78.80
78297;DHT22;67555;47.660;19.622;2024-01-30T06:08:46;-2.90;79.10
78297;DHT22;67555;47.660;19.622;2024-01-30T06:11:12;-2.90;79.30
78297;DHT22;67555;47.660;19.622;2024-01-30T06:13:38;-2.80;79.40
78297;DHT22;67555;47.660;19.622;2024-01-30T06:16:04;-2.70;79.20
78297;DHT22;67555;47.660;19.622;2024-01-30T06:18:31;-2.60;79.10
78297;DHT22;67555;47.660;19.622;2024-01-30T06:20:56;-2.50;78.70
78297;DHT22;67555;47.660;19.622;2024-01-30T06:23:22;-2.50;78.60
78297;DHT22;67555;47.660;19.622;2024-01-30T06:25:48;-2.40;78.50
78297;DHT22;67555;47.660;19.622;2024-01-30T06:28:13;-2.20;78.10
78297;DHT22;67555;47.660;19.622;2024-01-30T06:30:39;-2.10;77.80
78297;DHT22;67555;47.660;19.622;2024-01-30T06:33:05;-2.00;77.50
78297;DHT22;67555;47.660;19.622;2024-01-30T06:35:31;-1.90;77.20
78297;DHT22;67555;47.660;19.622;2024-01-30T06:37:56;-1.80;76.90
78297;DHT22;67555;47.660;19.622;2024-01-30T06:40:22;-1.80;76.70
78297;DHT22;67555;47.660;19.622;2024-01-30T06:42:48;-1.80;76.50
78297;DHT22;67555;47.660;19.622;2024-01-30T06:45:14;-1.80;76.80
78297;DHT22;67555;47.660;19.622;2024-01-30T06:47:40;-1.90;77.00
78297;DHT22;67555;47.660;19.622;2024-01-30T06:50:06;-1.90;76.90
78297;DHT22;67555;47.660;19.622;2024-01-30T06:52:32;-1.90;77.30
78297;DHT22;67555;47.660;19.622;2024-01-30T06:54:58;-1.90;77.50
78297;DHT22;67555;47.660;19.622;2024-01-30T06:57:23;-1.70;77.50
78297;DHT22;67555;47.660;19.622;2024-01-30T06:59:49;-1.60;77.20
78297;DHT22;67555;47.660;19.622;2024-01-30T07:02:15;-1.50;76.90
78297;DHT22;67555;47.660;19.622;2024-01-30T07:04:41;-1.30;76.60
78297;DHT22;67555;47.660;19.622;2024-01-30T07:07:07;-1.10;76.30
78297;DHT22;67555;47.660;19.622;2024-01-30T07:09:38;-1.00;76.00
78297;DHT22;67555;47.660;19.622;2024-01-30T07:12:04;-0.90;75.80
78297;DHT22;67555;47.660;19.622;2024-01-30T07:14:30;-0.70;75.50
78297;DHT22;67555;47.660;19.622;2024-01-30T07:16:55;-0.70;75.40
78297;DHT22;67555;47.660;19.622;2024-01-30T07:19:21;-0.60;75.20
78297;DHT22;67555;47.660;19.622;2024-01-30T07:21:47;-0.60;75.10
78297;DHT22;67555;47.660;19.622;2024-01-30T07:24:13;-0.60;75.10
78297;DHT22;67555;47.660;19.622;2024-01-30T07:26:38;-0.50;75.20
78297;DHT22;67555;47.660;19.622;2024-01-30T07:29:04;-0.50;75.30
78297;DHT22;67555;47.660;19.622;2024-01-30T07:31:30;-0.50;75.50
78297;DHT22;67555;47.660;19.622;2024-01-30T07:33:55;-0.50;75.70
78297;DHT22;67555;47.660;19.622;2024-01-30T07:36:21;-0.40;75.70
78297;DHT22;67555;47.660;19.622;2024-01-30T07:38:47;-0.40;75.80
78297;DHT22;67555;47.660;19.622;2024-01-30T07:41:12;-0.40;76.00
78297;DHT22;67555;47.660;19.622;2024-01-30T07:43:38;-0.40;76.00
78297;DHT22;67555;47.660;19.622;2024-01-30T07:46:04;-0.30;76.00
78297;DHT22;67555;47.660;19.622;2024-01-30T07:48:32;-0.30;76.00
78297;DHT22;67555;47.660;19.622;2024-01-30T07:50:59;-0.30;76.10
78297;DHT22;67555;47.660;19.622;2024-01-30T07:53:25;-0.30;76.40
78297;DHT22;67555;47.660;19.622;2024-01-30T07:55:52;-0.30;76.50
78297;DHT22;67555;47.660;19.622;2024-01-30T07:58:18;-0.30;76.60
78297;DHT22;67555;47.660;19.622;2024-01-30T08:00:44;-0.20;76.60
78297;DHT22;67555;47.660;19.622;2024-01-30T08:03:10;-0.10;76.60
78297;DHT22;67555;47.660;19.622;2024-01-30T08:05:36;-0.10;76.50
78297;DHT22;67555;47.660;19.622;2024-01-30T08:08:02;0.00;76.20
78297;DHT22;67555;47.660;19.622;2024-01-30T08:10:27;0.00;76.30
78297;DHT22;67555;47.660;19.622;2024-01-30T08:12:53;0.20;76.20
78297;DHT22;67555;47.660;19.622;2024-01-30T08:15:19;0.30;76.10
78297;DHT22;67555;47.660;19.622;2024-01-30T08:17:44;0.40;76.00
78297;DHT22;67555;47.660;19.622;2024-01-30T08:20:11;0.50;75.70
78297;DHT22;67555;47.660;19.622;2024-01-30T08:22:40;0.60;75.70
78297;DHT22;67555;47.660;19.622;2024-01-30T08:25:06;0.70;75.70
78297;DHT22;67555;47.660;19.622;2024-01-30T08:27:33;0.80;75.70
78297;DHT22;67555;47.660;19.622;2024-01-30T08:30:01;0.90;75.70
78297;DHT22;67555;47.660;19.622;2024-01-30T08:32:27;1.00;75.50
78297;DHT22;67555;47.660;19.622;2024-01-30T08:34:52;1.10;75.60
78297;DHT22;67555;47.660;19.622;2024-01-30T08:37:18;1.20;75.50
78297;DHT22;67555;47.660;19.622;2024-01-30T08:39:44;1.40;75.20
78297;DHT22;67555;47.660;19.622;2024-01-30T08:42:10;1.60;74.80
78297;DHT22;67555;47.660;19.622;2024-01-30T08:44:35;1.70;74.70
78297;DHT22;67555;47.660;19.622;2024-01-30T08:47:01;1.80;74.70
78297;DHT22;67555;47.660;19.622;2024-01-30T08:49:27;2.00;74.40
78297;DHT22;67555;47.660;19.622;2024-01-30T08:51:53;2.10;74.30
78297;DHT22;67555;47.660;19.622;2024-01-30T08:54:19;2.30;73.90
78297;DHT22;67555;47.660;19.622;2024-01-30T08:56:44;2.40;73.70
78297;DHT22;67555;47.660;19.622;2024-01-30T08:59:10;2.50;73.40
78297;DHT22;67555;47.660;19.622;2024-01-30T09:01:36;2.80;73.10
78297;DHT22;67555;47.660;19.622;2024-01-30T09:04:02;2.80;72.90
78297;DHT22;67555;47.660;19.622;2024-01-30T09:06:28;2.90;72.90
78297;DHT22;67555;47.660;19.622;2024-01-30T09:08:54;3.10;72.80
78297;DHT22;67555;47.660;19.622;2024-01-30T09:11:20;3.10;72.60
78297;DHT22;67555;47.660;19.622;2024-01-30T09:13:46;3.20;72.60
78297;DHT22;67555;47.660;19.622;2024-01-30T09:16:11;3.30;72.30
78297;DHT22;67555;47.660;19.622;2024-01-30T09:18:37;3.40;72.20
78297;DHT22;67555;47.660;19.622;2024-01-30T09:21:03;3.50;72.10
78297;DHT22;67555;47.660;19.622;2024-01-30T09:23:29;3.60;71.80
78297;DHT22;67555;47.660;19.622;2024-01-30T09:25:55;3.80;71.70
78297;DHT22;67555;47.660;19.622;2024-01-30T09:28:21;3.90;71.50
78297;DHT22;67555;47.660;19.622;2024-01-30T09:30:46;4.00;71.30
78297;DHT22;67555;47.660;19.622;2024-01-30T09:33:12;4.20;71.20
78297;DHT22;67555;47.660;19.622;2024-01-30T09:35:38;4.20;71.10
78297;DHT22;67555;47.660;19.622;2024-01-30T09:38:04;4.30;70.90
78297;DHT22;67555;47.660;19.622;2024-01-30T09:40:30;4.40;70.90
78297;DHT22;67555;47.660;19.622;2024-01-30T09:42:55;4.50;70.90
78297;DHT22;67555;47.660;19.622;2024-01-30T09:45:25;4.60;70.80
78297;DHT22;67555;47.660;19.622;2024-01-30T09:47:52;4.70;70.70
78297;DHT22;67555;47.660;19.622;2024-01-30T09:50:18;4.80;70.60
78297;DHT22;67555;47.660;19.622;2024-01-30T09:52:45;4.90;70.50
78297;DHT22;67555;47.660;19.622;2024-01-30T09:55:10;5.00;70.50
78297;DHT22;67555;47.660;19.622;2024-01-30T09:57:36;5.00;70.40
78297;DHT22;67555;47.660;19.622;2024-01-30T10:00:06;5.10;70.30
78297;DHT22;67555;47.660;19.622;2024-01-30T10:02:37;5.20;70.30
78297;DHT22;67555;47.660;19.622;2024-01-30T10:05:02;5.20;70.20
78297;DHT22;67555;47.660;19.622;2024-01-30T10:07:28;5.30;70.30
78297;DHT22;67555;47.660;19.622;2024-01-30T10:09:55;5.30;70.10
78297;DHT22;67555;47.660;19.622;2024-01-30T10:12:22;5.40;70.10
78297;DHT22;67555;47.660;19.622;2024-01-30T10:14:48;5.50;70.10
78297;DHT22;67555;47.660;19.622;2024-01-30T10:17:14;5.60;69.90
78297;DHT22;67555;47.660;19.622;2024-01-30T10:19:43;5.60;69.70
78297;DHT22;67555;47.660;19.622;2024-01-30T10:22:09;5.70;69.60
78297;DHT22;67555;47.660;19.622;2024-01-30T10:24:35;5.80;69.60
78297;DHT22;67555;47.660;19.622;2024-01-30T10:27:02;5.80;69.50
78297;DHT22;67555;47.660;19.622;2024-01-30T10:29:28;5.90;69.40
78297;DHT22;67555;47.660;19.622;2024-01-30T10:32:12;6.00;69.30
78297;DHT22;67555;47.660;19.622;2024-01-30T10:34:38;6.00;69.20
78297;DHT22;67555;47.660;19.622;2024-01-30T10:37:11;6.10;69.10
78297;DHT22;67555;47.660;19.622;2024-01-30T10:39:42;6.20;69.00
78297;DHT22;67555;47.660;19.622;2024-01-30T10:42:13;6.20;68.80
78297;DHT22;67555;47.660;19.622;2024-01-30T10:44:48;6.20;68.80
78297;DHT22;67555;47.660;19.622;2024-01-30T10:47:20;6.30;68.70
78297;DHT22;67555;47.660;19.622;2024-01-30T10:49:47;6.30;68.60
78297;DHT22;67555;47.660;19.622;2024-01-30T10:52:13;6.40;68.50
78297;DHT22;67555;47.660;19.622;2024-01-30T10:54:40;6.50;68.40
78297;DHT22;67555;47.660;19.622;2024-01-30T10:57:09;6.60;68.20
78297;DHT22;67555;47.660;19.622;2024-01-30T10:59:36;6.60;68.20
78297;DHT22;67555;47.660;19.622;2024-01-30T11:02:02;6.60;68.20
78297;DHT22;67555;47.660;19.622;2024-01-30T11:04:36;6.70;68.10
78297;DHT22;67555;47.660;19.622;2024-01-30T11:07:02;6.70;68.10
78297;DHT22;67555;47.660;19.622;2024-01-30T11:09:29;6.80;67.90
78297;DHT22;67555;47.660;19.622;2024-01-30T11:11:58;6.90;67.60
78297;DHT22;67555;47.660;19.622;2024-01-30T11:14:29;7.00;67.50
78297;DHT22;67555;47.660;19.622;2024-01-30T11:16:59;7.00;67.30
78297;DHT22;67555;47.660;19.622;2024-01-30T11:19:26;7.10;67.30
78297;DHT22;67555;47.660;19.622;2024-01-30T11:21:55;7.10;67.20
78297;DHT22;67555;47.660;19.622;2024-01-30T11:24:25;7.20;67.20
78297;DHT22;67555;47.660;19.622;2024-01-30T11:26:58;7.20;67.10
78297;DHT22;67555;47.660;19.622;2024-01-30T11:29:28;7.20;67.00
78297;DHT22;67555;47.660;19.622;2024-01-30T11:31:58;7.40;66.90
78297;DHT22;67555;47.660;19.622;2024-01-30T11:34:24;7.40;66.80
78297;DHT22;67555;47.660;19.622;2024-01-30T11:36:56;7.40;66.80
78297;DHT22;67555;47.660;19.622;2024-01-30T11:39:27;7.50;66.70
78297;DHT22;67555;47.660;19.622;2024-01-30T11:41:53;7.60;66.60
78297;DHT22;67555;47.660;19.622;2024-01-30T11:44:20;7.60;66.40
78297;DHT22;67555;47.660;19.622;2024-01-30T11:46:50;7.70;66.30
78297;DHT22;67555;47.660;19.622;2024-01-30T11:49:16;7.80;66.10
78297;DHT22;67555;47.660;19.622;2024-01-30T11:51:43;7.80;66.00
78297;DHT22;67555;47.660;19.622;2024-01-30T11:54:10;8.00;65.90
78297;DHT22;67555;47.660;19.622;2024-01-30T11:56:37;8.00;65.60
78297;DHT22;67555;47.660;19.622;2024-01-30T11:59:04;8.00;65.50
78297;DHT22;67555;47.660;19.622;2024-01-30T12:01:31;8.00;65.40
78297;DHT22;67555;47.660;19.622;2024-01-30T12:03:58;8.00;65.40
78297;DHT22;67555;47.660;19.622;2024-01-30T12:06:24;8.00;65.40
78297;DHT22;67555;47.660;19.622;2024-01-30T12:09:02;8.10;65.20
78297;DHT22;67555;47.660;19.622;2024-01-30T12:11:44;8.00;65.20
78297;DHT22;67555;47.660;19.622;2024-01-30T12:14:10;8.00;65.10
78297;DHT22;67555;47.660;19.622;2024-01-30T12:16:36;8.10;65.20
78297;DHT22;67555;47.660;19.622;2024-01-30T12:19:02;8.10;65.10
78297;DHT22;67555;47.660;19.622;2024-01-30T12:21:29;8.00;65.30
78297;DHT22;67555;47.660;19.622;2024-01-30T12:23:56;8.10;65.40
78297;DHT22;67555;47.660;19.622;2024-01-30T12:26:21;8.20;65.30
78297;DHT22;67555;47.660;19.622;2024-01-30T12:28:48;8.30;65.00
78297;DHT22;67555;47.660;19.622;2024-01-30T12:31:15;8.50;64.90
78297;DHT22;67555;47.660;19.622;2024-01-30T12:33:41;8.60;64.60
78297;DHT22;67555;47.660;19.622;2024-01-30T12:36:07;8.80;64.30
78297;DHT22;67555;47.660;19.622;2024-01-30T12:38:33;9.00;63.90
78297;DHT22;67555;47.660;19.622;2024-01-30T12:40:58;9.20;63.30
78297;DHT22;67555;47.660;19.622;2024-01-30T12:43:25;9.50;62.80
78297;DHT22;67555;47.660;19.622;2024-01-30T12:45:52;9.70;62.30
78297;DHT22;67555;47.660;19.622;2024-01-30T12:48:18;10.00;61.60
78297;DHT22;67555;47.660;19.622;2024-01-30T12:50:44;10.10;60.90
78297;DHT22;67555;47.660;19.622;2024-01-30T12:53:10;10.30;60.50
78297;DHT22;67555;47.660;19.622;2024-01-30T12:55:35;10.50;60.20
78297;DHT22;67555;47.660;19.622;2024-01-30T12:58:01;10.60;59.80
78297;DHT22;67555;47.660;19.622;2024-01-30T13:00:27;10.80;59.50
78297;DHT22;67555;47.660;19.622;2024-01-30T13:02:53;10.90;59.10
78297;DHT22;67555;47.660;19.622;2024-01-30T13:05:18;11.10;58.60
78297;DHT22;67555;47.660;19.622;2024-01-30T13:07:44;11.10;58.20
78297;DHT22;67555;47.660;19.622;2024-01-30T13:10:10;11.30;57.90
78297;DHT22;67555;47.660;19.622;2024-01-30T13:12:36;11.50;57.40
78297;DHT22;67555;47.660;19.622;2024-01-30T13:15:04;11.50;56.90
78297;DHT22;67555;47.660;19.622;2024-01-30T13:17:31;11.60;56.70
78297;DHT22;67555;47.660;19.622;2024-01-30T13:19:57;11.60;56.60
78297;DHT22;67555;47.660;19.622;2024-01-30T13:22:23;11.70;56.30
78297;DHT22;67555;47.660;19.622;2024-01-30T13:24:49;11.60;56.20
78297;DHT22;67555;47.660;19.622;2024-01-30T13:27:15;11.60;56.20
78297;DHT22;67555;47.660;19.622;2024-01-30T13:29:41;11.70;56.00
78297;DHT22;67555;47.660;19.622;2024-01-30T13:32:06;11.70;55.80
78297;DHT22;67555;47.660;19.622;2024-01-30T13:34:32;11.80;55.50
78297;DHT22;67555;47.660;19.622;2024-01-30T13:36:58;11.80;55.30
78297;DHT22;67555;47.660;19.622;2024-01-30T13:39:24;11.90;55.10
78297;DHT22;67555;47.660;19.622;2024-01-30T13:41:49;12.00;54.80
78297;DHT22;67555;47.660;19.622;2024-01-30T13:44:16;12.00;54.40
78297;DHT22;67555;47.660;19.622;2024-01-30T13:46:43;12.00;54.10
78297;DHT22;67555;47.660;19.622;2024-01-30T13:49:08;12.00;54.10
78297;DHT22;67555;47.660;19.622;2024-01-30T13:51:34;12.00;54.00
78297;DHT22;67555;47.660;19.622;2024-01-30T13:54:00;11.90;54.00
78297;DHT22;67555;47.660;19.622;2024-01-30T13:56:26;11.90;54.00
78297;DHT22;67555;47.660;19.622;2024-01-30T13:58:52;11.80;54.00
78297;DHT22;67555;47.660;19.622;2024-01-30T14:01:18;11.70;54.30
78297;DHT22;67555;47.660;19.622;2024-01-30T14:03:44;11.70;54.10
78297;DHT22;67555;47.660;19.622;2024-01-30T14:06:11;11.50;54.30
78297;DHT22;67555;47.660;19.622;2024-01-30T14:08:37;11.50;54.40
78297;DHT22;67555;47.660;19.622;2024-01-30T14:11:03;11.50;54.40
78297;DHT22;67555;47.660;19.622;2024-01-30T14:13:29;11.50;54.40
78297;DHT22;67555;47.660;19.622;2024-01-30T14:15:56;11.50;54.30
78297;DHT22;67555;47.660;19.622;2024-01-30T14:18:23;11.50;54.20
78297;DHT22;67555;47.660;19.622;2024-01-30T14:20:51;11.40;54.10
78297;DHT22;67555;47.660;19.622;2024-01-30T14:23:17;11.30;54.00
78297;DHT22;67555;47.660;19.622;2024-01-30T14:25:43;11.10;54.00
78297;DHT22;67555;47.660;19.622;2024-01-30T14:28:10;11.00;54.20
78297;DHT22;67555;47.660;19.622;2024-01-30T14:30:35;10.80;54.40
78297;DHT22;67555;47.660;19.622;2024-01-30T14:33:01;10.60;54.70
78297;DHT22;67555;47.660;19.622;2024-01-30T14:35:27;10.40;54.90
78297;DHT22;67555;47.660;19.622;2024-01-30T14:37:53;10.30;55.10
78297;DHT22;67555;47.660;19.622;2024-01-30T14:40:19;10.10;55.30
78297;DHT22;67555;47.660;19.622;2024-01-30T14:42:45;9.90;55.60
78297;DHT22;67555;47.660;19.622;2024-01-30T14:45:11;9.70;55.90
78297;DHT22;67555;47.660;19.622;2024-01-30T14:47:37;9.50;56.20
78297;DHT22;67555;47.660;19.622;2024-01-30T14:50:04;9.40;56.40
78297;DHT22;67555;47.660;19.622;2024-01-30T14:52:31;9.30;56.50
78297;DHT22;67555;47.660;19.622;2024-01-30T14:54:57;9.20;56.60
78297;DHT22;67555;47.660;19.622;2024-01-30T14:57:25;9.00;56.70
78297;DHT22;67555;47.660;19.622;2024-01-30T14:59:51;8.90;56.80
78297;DHT22;67555;47.660;19.622;2024-01-30T15:02:16;8.80;57.00
78297;DHT22;67555;47.660;19.622;2024-01-30T15:04:42;8.60;57.40
78297;DHT22;67555;47.660;19.622;2024-01-30T15:07:08;8.40;57.70
78297;DHT22;67555;47.660;19.622;2024-01-30T15:09:34;8.30;58.00
78297;DHT22;67555;47.660;19.622;2024-01-30T15:12:00;8.20;58.20
78297;DHT22;67555;47.660;19.622;2024-01-30T15:14:26;8.10;58.30
78297;DHT22;67555;47.660;19.622;2024-01-30T15:16:51;8.00;58.50